createdAt,value
2022-08-04T00:00:41.291Z,45.30
2022-08-04T00:03:15.545Z,46.00
2022-08-04T00:05:54.067Z,45.90
2022-08-04T00:08:28.007Z,46.20
2022-08-04T00:10:56.874Z,45.50
2022-08-04T00:13:26.773Z,45.00
2022-08-04T00:15:55.144Z,45.00
2022-08-04T00:18:24.523Z,44.60
2022-08-04T00:20:52.593Z,44.60
2022-08-04T00:23:20.672Z,45.20
2022-08-04T00:25:48.755Z,45.40
2022-08-04T00:28:16.823Z,46.50
2022-08-04T00:30:46.251Z,45.60
2022-08-04T00:33:14.431Z,45.30
2022-08-04T00:35:42.522Z,45.20
2022-08-04T00:38:10.595Z,44.50
2022-08-04T00:40:43.609Z,45.40
2022-08-04T00:43:16.301Z,45.50
2022-08-04T00:46:15.472Z,45.70
2022-08-04T00:48:58.410Z,46.40
2022-08-04T00:51:31.812Z,45.80
2022-08-04T00:54:05.917Z,46.40
2022-08-04T00:56:45.601Z,46.20
2022-08-04T00:59:19.100Z,45.80
2022-08-04T01:01:56.651Z,46.10
2022-08-04T01:04:29.545Z,46.50
2022-08-04T01:07:10.245Z,46.30
2022-08-04T01:09:45.408Z,46.70
2022-08-04T01:12:29.392Z,45.70
2022-08-04T01:15:05.077Z,45.60
2022-08-04T01:17:44.883Z,45.40
2022-08-04T01:20:13.324Z,44.40
2022-08-04T01:23:18.304Z,45.00
2022-08-04T01:26:42.521Z,45.00
2022-08-04T01:29:08.042Z,43.70
2022-08-04T01:31:55.245Z,43.60
2022-08-04T01:34:23.836Z,44.00
2022-08-04T01:36:58.983Z,43.70
2022-08-04T01:39:42.618Z,44.00
2022-08-04T01:42:11.708Z,43.40
2022-08-04T01:44:42.673Z,43.40
2022-08-04T01:47:11.055Z,43.80
2022-08-04T01:49:40.918Z,44.10
2022-08-04T01:52:10.457Z,44.30
2022-08-04T01:54:40.387Z,43.90
2022-08-04T01:57:37.045Z,44.50
2022-08-04T01:59:58.102Z,45.30
2022-08-04T02:02:26.414Z,45.70
2022-08-04T02:04:54.668Z,46.40
2022-08-04T02:07:34.652Z,47.80
2022-08-04T02:10:06.415Z,47.00
2022-08-04T02:12:54.900Z,47.30
2022-08-04T02:15:31.584Z,47.40
2022-08-04T02:18:03.954Z,46.50
2022-08-04T02:20:35.256Z,45.10
2022-08-04T02:23:04.899Z,44.70
2022-08-04T02:25:35.714Z,44.90
2022-08-04T02:28:12.725Z,45.20
2022-08-04T02:30:45.280Z,44.80
2022-08-04T02:33:14.580Z,44.50
2022-08-04T02:35:42.642Z,44.30
2022-08-04T02:38:16.775Z,44.40
2022-08-04T02:40:53.665Z,44.90
2022-08-04T02:43:51.835Z,44.80
2022-08-04T02:46:18.141Z,44.90
2022-08-04T02:48:47.893Z,44.60
2022-08-04T02:51:17.003Z,44.60
2022-08-04T02:53:45.232Z,44.50
2022-08-04T02:56:13.298Z,45.00
2022-08-04T02:58:41.330Z,44.80
2022-08-04T03:01:09.486Z,44.90
2022-08-04T03:03:41.681Z,44.80
2022-08-04T03:06:33.773Z,45.40
2022-08-04T03:09:08.437Z,45.60
2022-08-04T03:11:55.766Z,45.80
2022-08-04T03:14:50.470Z,45.30
2022-08-04T03:17:52.735Z,45.30
2022-08-04T03:20:59.780Z,44.50
2022-08-04T03:24:01.268Z,44.20
2022-08-04T03:27:05.295Z,44.10
2022-08-04T03:30:09.584Z,44.10
2022-08-04T03:33:20.440Z,43.70
2022-08-04T03:36:30.182Z,43.60
2022-08-04T03:39:30.133Z,43.80
2022-08-04T03:42:13.152Z,44.70
2022-08-04T03:45:20.479Z,44.30
2022-08-04T03:48:04.177Z,44.50
2022-08-04T03:51:32.287Z,43.80
2022-08-04T03:54:34.308Z,43.70
2022-08-04T03:57:13.122Z,43.00
2022-08-04T03:59:52.888Z,43.10
2022-08-04T04:02:42.588Z,42.80
2022-08-04T04:06:02.384Z,43.00
2022-08-04T04:08:50.730Z,42.50
2022-08-04T04:11:54.208Z,42.70
2022-08-04T04:14:34.665Z,43.00
2022-08-04T04:17:10.384Z,44.60
2022-08-04T04:20:06.449Z,45.00
2022-08-04T04:23:06.883Z,46.20
2022-08-04T04:25:45.022Z,45.60
2022-08-04T04:28:44.890Z,45.60
2022-08-04T04:31:26.243Z,45.60
2022-08-04T04:33:57.198Z,45.50
2022-08-04T04:36:27.143Z,44.30
2022-08-04T04:39:09.296Z,44.80
2022-08-04T04:41:59.324Z,45.20
2022-08-04T04:45:03.429Z,44.50
2022-08-04T04:47:43.040Z,44.90
2022-08-04T04:50:34.998Z,45.30
2022-08-04T04:53:09.185Z,44.90
2022-08-04T04:55:47.692Z,44.10
2022-08-04T04:58:18.211Z,43.70
2022-08-04T05:00:59.720Z,43.80
2022-08-04T05:03:36.644Z,44.50
2022-08-04T05:06:16.180Z,44.40
2022-08-04T05:08:54.330Z,44.60
2022-08-04T05:11:54.383Z,44.40
2022-08-04T05:14:36.110Z,44.20
2022-08-04T05:17:14.641Z,43.90
2022-08-04T05:19:49.157Z,43.60
2022-08-04T05:22:20.105Z,43.50
2022-08-04T05:24:48.247Z,43.50
2022-08-04T05:27:18.424Z,43.10
2022-08-04T05:29:51.170Z,43.40
2022-08-04T05:32:23.877Z,43.50
2022-08-04T05:34:55.857Z,43.60
2022-08-04T05:37:24.059Z,43.50
2022-08-04T05:39:58.715Z,43.20
2022-08-04T05:42:27.458Z,42.60
2022-08-04T05:44:55.983Z,43.10
2022-08-04T05:47:25.571Z,43.50
2022-08-04T05:49:55.637Z,43.50
2022-08-04T05:52:31.049Z,42.80
2022-08-04T05:54:59.436Z,43.10
2022-08-04T05:57:27.506Z,43.10
2022-08-04T05:59:55.579Z,43.00
2022-08-04T06:02:25.192Z,42.60
2022-08-04T06:04:53.344Z,42.60
2022-08-04T06:07:21.629Z,42.40
2022-08-04T06:09:49.823Z,41.90
2022-08-04T06:12:19.875Z,42.40
2022-08-04T06:14:49.938Z,41.70
2022-08-04T06:18:35.217Z,41.00
2022-08-04T06:20:19.586Z,40.60
2022-08-04T06:22:53.705Z,40.20
2022-08-04T06:25:23.919Z,40.30
2022-08-04T06:27:52.160Z,39.80
2022-08-04T06:30:20.989Z,39.80
2022-08-04T06:33:04.064Z,40.10
2022-08-04T06:35:35.053Z,39.30
2022-08-04T06:40:47.771Z,38.50
2022-08-04T06:43:15.881Z,38.00
2022-08-04T06:45:43.986Z,37.80
2022-08-04T06:48:14.318Z,37.90
2022-08-04T06:51:31.297Z,37.70
2022-08-04T06:53:33.534Z,37.00
2022-08-04T06:56:01.640Z,36.90
2022-08-04T06:58:29.790Z,36.90
2022-08-04T07:01:01.999Z,37.20
2022-08-04T07:03:30.262Z,37.10
2022-08-04T07:05:59.727Z,36.60
2022-08-04T07:08:34.256Z,35.90
2022-08-04T07:11:02.474Z,35.70
2022-08-04T07:13:30.612Z,34.80
2022-08-04T07:15:58.996Z,35.30
2022-08-04T07:18:27.088Z,35.20
2022-08-04T07:20:55.184Z,34.50
2022-08-04T07:23:26.414Z,34.10
2022-08-04T07:25:58.998Z,34.00
2022-08-04T07:28:30.520Z,33.60
2022-08-04T07:30:59.059Z,32.60
2022-08-04T07:33:27.228Z,32.60
2022-08-04T07:36:10.518Z,32.70
2022-08-04T07:38:48.811Z,31.80
2022-08-04T07:41:38.002Z,31.60
2022-08-04T07:44:06.560Z,31.40
2022-08-04T07:46:37.095Z,31.30
2022-08-04T07:49:05.540Z,31.30
2022-08-04T07:51:35.393Z,31.90
2022-08-04T07:54:05.528Z,30.60
2022-08-04T07:56:34.252Z,30.70
2022-08-04T07:59:03.950Z,30.60
2022-08-04T08:01:32.042Z,30.50
2022-08-04T08:04:00.692Z,30.50
2022-08-04T08:06:34.036Z,30.60
2022-08-04T08:09:13.113Z,30.60
2022-08-04T08:12:36.713Z,30.60
2022-08-04T08:14:31.664Z,30.40
2022-08-04T08:17:02.692Z,30.00
2022-08-04T08:19:31.143Z,29.40
2022-08-04T08:22:01.010Z,29.70
2022-08-04T08:24:32.247Z,29.90
2022-08-04T08:27:01.010Z,29.50
2022-08-04T08:29:31.120Z,29.40
2022-08-04T08:32:05.367Z,29.40
2022-08-04T08:34:35.992Z,29.30
2022-08-04T08:37:06.020Z,28.60
2022-08-04T08:39:37.823Z,28.80
2022-08-04T08:42:36.545Z,28.70
2022-08-04T08:45:25.673Z,28.50
2022-08-04T08:48:24.129Z,28.60
2022-08-04T08:51:26.256Z,28.10
2022-08-04T08:54:07.301Z,28.60
2022-08-04T08:56:50.799Z,27.90
2022-08-04T08:59:46.056Z,28.60
2022-08-04T09:02:35.720Z,28.10
2022-08-04T09:05:15.590Z,28.60
2022-08-04T09:07:52.523Z,28.00
2022-08-04T09:10:22.142Z,29.20
2022-08-04T09:13:02.487Z,28.20
2022-08-04T09:15:36.015Z,28.20
2022-08-04T09:18:06.946Z,28.00
2022-08-04T09:20:39.426Z,28.40
2022-08-04T09:23:19.719Z,27.80
2022-08-04T09:25:54.482Z,27.70
2022-08-04T09:28:50.793Z,28.90
2022-08-04T09:31:15.446Z,27.90
2022-08-04T09:33:46.846Z,30.10
2022-08-04T09:36:26.374Z,27.90
2022-08-04T09:39:05.078Z,27.30
2022-08-04T09:41:47.990Z,27.40
2022-08-04T09:44:52.100Z,27.40
2022-08-04T09:47:14.897Z,27.20
2022-08-04T09:49:47.499Z,27.00
2022-08-04T09:52:22.255Z,27.40
2022-08-04T09:54:53.238Z,26.50
2022-08-04T09:57:27.977Z,26.00
2022-08-04T09:59:59.806Z,26.00
2022-08-04T10:02:30.373Z,26.00
2022-08-04T10:04:58.599Z,25.60
2022-08-04T10:07:39.107Z,25.10
2022-08-04T10:10:21.178Z,26.60
2022-08-04T10:12:59.917Z,25.50
2022-08-04T10:15:33.067Z,25.00
2022-08-04T10:18:10.927Z,24.90
2022-08-04T10:21:00.086Z,25.10
2022-08-04T10:23:56.421Z,24.60
2022-08-04T10:26:30.523Z,24.60
2022-08-04T10:29:02.382Z,25.40
2022-08-04T10:31:34.309Z,26.40
2022-08-04T10:34:04.378Z,25.50
2022-08-04T10:36:37.328Z,24.60
2022-08-04T10:39:12.230Z,24.70
2022-08-04T10:42:07.540Z,24.20
2022-08-04T10:44:42.192Z,25.30
2022-08-04T10:47:26.127Z,24.10
2022-08-04T10:49:56.716Z,24.00
2022-08-04T10:52:30.515Z,24.10
2022-08-04T10:55:01.669Z,24.10
2022-08-04T10:57:31.674Z,23.80
2022-08-04T11:00:03.829Z,24.70
2022-08-04T11:02:38.040Z,23.80
2022-08-04T11:05:23.954Z,23.70
2022-08-04T11:07:55.476Z,23.60
2022-08-04T11:10:25.620Z,24.40
2022-08-04T11:12:58.898Z,23.50
2022-08-04T11:15:29.361Z,23.10
2022-08-04T11:18:00.439Z,23.30
2022-08-04T11:20:35.867Z,23.30
2022-08-04T11:23:07.224Z,23.10
2022-08-04T11:25:41.208Z,23.00
2022-08-04T11:28:12.556Z,22.30
2022-08-04T11:30:44.037Z,21.30
2022-08-04T11:33:20.463Z,21.90
2022-08-04T11:35:52.389Z,22.60
2022-08-04T11:38:23.811Z,23.40
2022-08-04T11:41:02.839Z,23.00
2022-08-04T11:44:00.762Z,24.70
2022-08-04T11:46:26.283Z,22.20
2022-08-04T11:48:59.839Z,23.30
2022-08-04T11:51:28.390Z,21.90
2022-08-04T11:53:57.167Z,21.60
2022-08-04T11:56:36.897Z,21.50
2022-08-04T11:59:07.587Z,21.90
2022-08-04T12:01:40.508Z,21.80
2022-08-04T12:04:15.065Z,21.50
2022-08-04T12:06:57.113Z,21.90
2022-08-04T12:09:37.466Z,22.00
2022-08-04T12:12:10.878Z,21.60
2022-08-04T12:14:45.478Z,22.90
2022-08-04T12:17:13.589Z,23.80
2022-08-04T12:20:04.603Z,21.90
2022-08-04T12:22:40.908Z,21.20
2022-08-04T12:25:10.358Z,21.70
2022-08-04T12:27:43.189Z,24.20
2022-08-04T12:30:58.483Z,21.90
2022-08-04T12:33:18.068Z,22.60
2022-08-04T12:36:04.353Z,21.10
2022-08-04T12:38:38.812Z,21.00
2022-08-04T12:41:07.019Z,22.80
2022-08-04T12:43:38.963Z,22.90
2022-08-04T12:46:07.640Z,24.30
2022-08-04T12:48:37.643Z,20.70
2022-08-04T12:52:06.995Z,20.70
2022-08-04T12:53:57.738Z,20.10
2022-08-04T12:56:27.773Z,22.00
2022-08-04T12:59:01.437Z,20.70
2022-08-04T13:02:10.947Z,21.00
2022-08-04T13:04:19.857Z,21.00
2022-08-04T13:06:54.892Z,19.70
2022-08-04T13:09:22.745Z,19.50
2022-08-04T13:11:52.094Z,19.60
2022-08-04T13:14:27.147Z,21.40
2022-08-04T13:16:58.502Z,22.20
2022-08-04T13:19:26.562Z,20.50
2022-08-04T13:22:03.115Z,18.40
2022-08-04T13:24:41.638Z,19.70
2022-08-04T13:27:23.246Z,18.90
2022-08-04T13:30:00.818Z,20.20
2022-08-04T13:32:32.081Z,19.60
2022-08-04T13:35:02.183Z,19.90
2022-08-04T13:37:35.398Z,19.20
2022-08-04T13:40:04.506Z,19.00
2022-08-04T13:42:32.599Z,20.00
2022-08-04T13:45:03.955Z,19.90
2022-08-04T13:47:33.542Z,21.10
2022-08-04T13:50:18.030Z,19.40
2022-08-04T13:52:49.066Z,18.60
2022-08-04T13:55:21.904Z,20.50
2022-08-04T13:57:51.845Z,19.40
2022-08-04T14:00:30.141Z,20.40
2022-08-04T14:03:03.387Z,18.60
2022-08-04T14:05:36.884Z,20.00
2022-08-04T14:08:24.284Z,19.60
2022-08-04T14:10:55.499Z,18.70
2022-08-04T14:13:30.623Z,19.90
2022-08-04T14:16:20.702Z,19.30
2022-08-04T14:18:48.827Z,20.00
2022-08-04T14:21:17.598Z,21.00
2022-08-04T14:23:49.259Z,20.60
2022-08-04T14:26:33.378Z,19.60
2022-08-04T14:29:28.147Z,19.40
2022-08-04T14:32:04.289Z,19.80
2022-08-04T14:34:41.309Z,19.60
2022-08-04T14:37:17.436Z,19.40
2022-08-04T14:40:08.250Z,20.70
2022-08-04T14:42:44.339Z,19.10
2022-08-04T14:45:13.216Z,19.40
2022-08-04T14:47:51.976Z,18.40
2022-08-04T14:50:21.300Z,18.80
2022-08-04T14:52:49.582Z,18.90
2022-08-04T14:55:20.912Z,18.40
2022-08-04T14:58:35.690Z,19.10
2022-08-04T15:00:37.627Z,20.40
2022-08-04T15:03:08.734Z,19.60
2022-08-04T15:05:55.471Z,19.00
2022-08-04T15:08:29.048Z,19.10
2022-08-04T15:11:03.013Z,19.20
2022-08-04T15:13:32.195Z,19.30
2022-08-04T15:16:06.138Z,20.40
2022-08-04T15:18:37.608Z,19.10
2022-08-04T15:21:07.753Z,18.30
2022-08-04T15:23:38.610Z,18.00
2022-08-04T15:26:10.999Z,18.30
2022-08-04T15:28:39.709Z,18.60
2022-08-04T15:31:10.610Z,18.40
2022-08-04T15:33:56.299Z,18.90
2022-08-04T15:36:36.481Z,18.40
2022-08-04T15:39:09.897Z,18.00
2022-08-04T15:41:46.319Z,18.40
2022-08-04T15:44:55.463Z,18.40
2022-08-04T15:47:27.149Z,18.60
2022-08-04T15:50:06.315Z,18.70
2022-08-04T15:53:10.689Z,18.60
2022-08-04T15:55:42.126Z,19.50
2022-08-04T15:58:13.138Z,17.60
2022-08-04T16:01:14.784Z,18.30
2022-08-04T16:03:53.003Z,18.40
2022-08-04T16:06:51.477Z,18.60
2022-08-04T16:09:46.270Z,18.90
2022-08-04T16:13:02.736Z,18.50
2022-08-04T16:15:42.316Z,19.10
2022-08-04T16:18:25.325Z,18.10
2022-08-04T16:20:58.696Z,18.00
2022-08-04T16:24:00.669Z,19.40
2022-08-04T16:26:57.518Z,17.60
2022-08-04T16:29:34.285Z,19.00
2022-08-04T16:32:17.522Z,17.80
2022-08-04T16:34:54.779Z,17.50
2022-08-04T16:37:25.434Z,17.70
2022-08-04T16:40:08.905Z,17.30
2022-08-04T16:42:37.128Z,18.60
2022-08-04T16:45:12.722Z,17.50
2022-08-04T16:48:07.682Z,17.40
2022-08-04T16:50:36.411Z,19.00
2022-08-04T16:53:04.483Z,18.80
2022-08-04T16:55:32.797Z,18.70
2022-08-04T16:58:00.887Z,18.10
2022-08-04T17:00:33.016Z,17.00
2022-08-04T17:03:04.758Z,16.90
2022-08-04T17:05:39.774Z,18.20
2022-08-04T17:10:56.797Z,17.50
2022-08-04T17:14:03.101Z,17.00
2022-08-04T17:16:18.260Z,16.90
2022-08-04T17:18:49.121Z,17.60
2022-08-04T17:21:19.673Z,17.70
2022-08-04T17:24:15.932Z,17.60
2022-08-04T17:26:40.417Z,16.90
2022-08-04T17:29:10.052Z,17.20
2022-08-04T17:31:40.543Z,17.60
2022-08-04T17:34:15.805Z,17.70
2022-08-04T17:36:44.557Z,19.90
2022-08-04T17:39:17.209Z,20.70
2022-08-04T17:41:49.189Z,21.60
2022-08-04T17:44:17.869Z,21.20
2022-08-04T17:46:48.509Z,21.90
2022-08-04T17:49:27.246Z,22.00
2022-08-04T17:52:04.549Z,22.30
2022-08-04T17:54:37.359Z,22.70
2022-08-04T17:57:15.165Z,23.20
2022-08-04T17:59:52.043Z,24.50
2022-08-04T18:02:32.534Z,25.40
2022-08-04T18:05:06.777Z,24.60
2022-08-04T18:08:39.843Z,25.90
2022-08-04T18:10:52.217Z,26.00
2022-08-04T18:13:22.987Z,25.90
2022-08-04T18:15:51.450Z,26.40
2022-08-04T18:18:23.354Z,26.90
2022-08-04T18:20:53.419Z,27.00
2022-08-04T18:23:31.421Z,27.50
2022-08-04T18:26:01.889Z,27.40
2022-08-04T18:28:33.275Z,27.80
2022-08-04T18:31:01.777Z,28.10
2022-08-04T18:33:39.578Z,29.00
2022-08-04T18:36:32.665Z,29.40
2022-08-04T18:38:59.428Z,29.90
2022-08-04T18:42:02.085Z,29.80
2022-08-04T18:44:30.990Z,30.10
2022-08-04T18:47:19.191Z,29.80
2022-08-04T18:51:01.837Z,30.20
2022-08-04T18:52:45.122Z,30.30
2022-08-04T18:55:55.779Z,30.10
2022-08-04T18:58:06.329Z,30.40
2022-08-04T19:00:48.366Z,30.50
2022-08-04T19:03:23.036Z,31.30
2022-08-04T19:05:51.797Z,31.10
2022-08-04T19:08:33.413Z,31.80
2022-08-04T19:11:16.743Z,31.80
2022-08-04T19:13:58.037Z,32.20
2022-08-04T19:16:27.573Z,32.40
2022-08-04T19:18:56.784Z,32.60
2022-08-04T19:21:58.711Z,32.20
2022-08-04T19:24:32.369Z,31.70
2022-08-04T19:27:07.294Z,32.30
2022-08-04T19:29:40.669Z,32.50
2022-08-04T19:32:14.388Z,32.70
2022-08-04T19:34:46.268Z,32.60
2022-08-04T19:37:56.183Z,32.00
2022-08-04T19:40:07.203Z,31.70
2022-08-04T19:42:36.070Z,32.00
2022-08-04T19:45:04.309Z,32.60
2022-08-04T19:48:17.991Z,32.90
2022-08-04T19:50:23.785Z,33.30
2022-08-04T19:52:52.782Z,32.90
2022-08-04T19:55:37.393Z,33.10
2022-08-04T19:58:07.351Z,33.80
2022-08-04T20:00:37.279Z,33.50
2022-08-04T20:03:09.839Z,33.70
2022-08-04T20:05:54.071Z,33.40
2022-08-04T20:08:25.072Z,33.50
2022-08-04T20:10:55.143Z,33.60
2022-08-04T20:13:25.479Z,34.30
2022-08-04T20:15:59.344Z,34.40
2022-08-04T20:18:35.593Z,33.90
2022-08-04T20:21:11.323Z,33.60
2022-08-04T20:23:50.136Z,33.40
2022-08-04T20:26:19.676Z,33.50
2022-08-04T20:28:51.842Z,33.40
2022-08-04T20:31:20.725Z,33.80
2022-08-04T20:33:54.850Z,33.50
2022-08-04T20:36:23.385Z,33.70
2022-08-04T20:38:52.748Z,33.90
2022-08-04T20:41:22.692Z,34.50
2022-08-04T20:43:50.939Z,34.50
2022-08-04T20:46:29.688Z,35.10
2022-08-04T20:48:58.177Z,35.20
2022-08-04T20:51:33.438Z,35.10
2022-08-04T20:54:02.045Z,35.00
2022-08-04T20:56:31.810Z,35.40
2022-08-04T20:59:00.470Z,34.80
2022-08-04T21:01:30.399Z,35.50
2022-08-04T21:04:27.523Z,35.90
2022-08-04T21:06:57.256Z,35.50
2022-08-04T21:09:37.243Z,36.20
2022-08-04T21:12:26.683Z,36.60
2022-08-04T21:14:57.112Z,36.30
2022-08-04T21:17:56.553Z,36.00
2022-08-04T21:20:14.136Z,36.70
2022-08-04T21:22:55.215Z,36.70
2022-08-04T21:25:27.809Z,36.70
2022-08-04T21:27:59.058Z,35.70
2022-08-04T21:33:20.735Z,36.00
2022-08-04T21:38:39.985Z,36.90
2022-08-04T21:41:09.999Z,37.00
2022-08-04T21:43:43.464Z,36.90
2022-08-04T21:46:11.741Z,36.90
2022-08-04T21:48:42.408Z,36.90
2022-08-04T21:54:03.036Z,36.30
2022-08-04T21:56:31.545Z,36.40
2022-08-04T21:59:03.431Z,36.50
2022-08-04T22:01:50.612Z,36.40
2022-08-04T22:04:20.808Z,37.20
2022-08-04T22:06:51.691Z,36.40
2022-08-04T22:09:22.054Z,36.30
2022-08-04T22:11:51.531Z,36.60
2022-08-04T22:14:28.938Z,35.30
2022-08-04T22:17:01.819Z,36.60
2022-08-04T22:19:50.160Z,36.30
2022-08-04T22:22:26.031Z,35.60
2022-08-04T22:24:55.472Z,35.50
2022-08-04T22:27:47.879Z,35.50
2022-08-04T22:30:33.073Z,35.60
2022-08-04T22:33:01.515Z,36.00
2022-08-04T22:35:35.611Z,38.50
2022-08-04T22:38:24.459Z,38.50
2022-08-04T22:40:58.900Z,37.20
2022-08-04T22:43:32.635Z,36.70
2022-08-04T22:46:05.416Z,36.40
2022-08-04T22:48:34.841Z,37.20
2022-08-04T22:51:03.537Z,37.30
2022-08-04T22:53:31.685Z,36.50
2022-08-04T22:56:09.381Z,37.50
2022-08-04T22:58:45.030Z,37.50
2022-08-04T23:01:15.632Z,36.90
2022-08-04T23:03:55.582Z,37.40
2022-08-04T23:06:24.958Z,38.00
2022-08-04T23:08:53.421Z,37.30
2022-08-04T23:11:21.613Z,36.90
2022-08-04T23:13:49.991Z,36.50
2022-08-04T23:16:20.126Z,37.20
2022-08-04T23:18:48.976Z,38.20
2022-08-04T23:21:17.484Z,38.50
2022-08-04T23:24:00.747Z,38.20
2022-08-04T23:26:30.335Z,39.10
2022-08-04T23:28:58.428Z,38.70
2022-08-04T23:31:28.221Z,38.90
2022-08-04T23:34:09.506Z,40.60
2022-08-04T23:36:40.661Z,39.90
2022-08-04T23:39:08.794Z,40.30
2022-08-04T23:41:53.633Z,40.20
2022-08-04T23:44:26.782Z,40.20
2022-08-04T23:47:02.852Z,40.40
2022-08-04T23:49:43.752Z,39.20
2022-08-04T23:52:23.521Z,39.10
2022-08-04T23:54:58.224Z,39.20
2022-08-04T23:57:31.075Z,39.50
